createdAt,value
2023-01-15T00:00:02.775Z,99532.28
2023-01-15T00:02:32.107Z,99527.00
2023-01-15T00:05:02.871Z,99535.59
2023-01-15T00:07:32.379Z,99528.91
2023-01-15T00:10:00.233Z,99536.97
2023-01-15T00:12:27.998Z,99532.13
2023-01-15T00:14:57.913Z,99522.00
2023-01-15T00:17:25.716Z,99533.38
2023-01-15T00:19:53.525Z,99532.38
2023-01-15T00:22:21.176Z,99530.88
2023-01-15T00:25:07.899Z,99531.69
2023-01-15T00:27:41.854Z,99524.50
2023-01-15T00:30:12.288Z,99530.47
2023-01-15T00:32:40.351Z,99529.50
2023-01-15T00:35:08.680Z,99536.56
2023-01-15T00:37:36.880Z,99538.38
2023-01-15T00:40:07.069Z,99542.50
2023-01-15T00:42:34.802Z,99546.94
2023-01-15T00:45:09.779Z,99544.31
2023-01-15T00:47:37.520Z,99547.91
2023-01-15T00:50:06.102Z,99540.00
2023-01-15T00:52:33.806Z,99549.44
2023-01-15T00:55:01.468Z,99553.56
2023-01-15T00:57:30.531Z,99546.50
2023-01-15T00:59:58.357Z,99539.44
2023-01-15T01:02:26.337Z,99533.66
2023-01-15T01:04:54.058Z,99539.16
2023-01-15T01:07:21.798Z,99544.84
2023-01-15T01:09:50.015Z,99550.25
2023-01-15T01:12:17.722Z,99534.28
2023-01-15T01:14:46.907Z,99549.53
2023-01-15T01:17:14.644Z,99557.03
2023-01-15T01:19:42.328Z,99559.91
2023-01-15T01:22:10.055Z,99563.78
2023-01-15T01:24:37.735Z,99562.13
2023-01-15T01:27:05.436Z,99568.22
2023-01-15T01:29:33.144Z,99565.59
2023-01-15T01:32:02.424Z,99553.28
2023-01-15T01:34:30.214Z,99568.75
2023-01-15T01:36:58.036Z,99556.88
2023-01-15T01:39:25.782Z,99552.00
2023-01-15T01:41:53.443Z,99547.72
2023-01-15T01:45:10.244Z,99562.38
2023-01-15T01:47:39.415Z,99570.41
2023-01-15T01:50:11.053Z,99564.31
2023-01-15T01:52:43.663Z,99556.28
2023-01-15T01:55:12.327Z,99557.09
2023-01-15T01:57:40.323Z,99557.94
2023-01-15T02:00:11.389Z,99557.66
2023-01-15T02:02:40.789Z,99567.19
2023-01-15T02:05:10.071Z,99559.59
2023-01-15T02:07:37.735Z,99556.97
2023-01-15T02:10:06.157Z,99560.19
2023-01-15T02:12:37.450Z,99566.13
2023-01-15T02:15:08.765Z,99574.84
2023-01-15T02:17:42.669Z,99580.34
2023-01-15T02:20:21.142Z,99580.91
2023-01-15T02:22:56.430Z,99570.78
2023-01-15T02:25:33.096Z,99578.53
2023-01-15T02:28:05.784Z,99570.63
2023-01-15T02:30:35.525Z,99555.41
2023-01-15T02:33:07.705Z,99568.44
2023-01-15T02:35:39.075Z,99562.34
2023-01-15T02:38:09.745Z,99552.66
2023-01-15T02:40:38.476Z,99551.84
2023-01-15T02:43:08.041Z,99544.63
2023-01-15T02:45:38.463Z,99552.97
2023-01-15T02:48:10.816Z,99542.44
2023-01-15T02:50:41.594Z,99563.72
2023-01-15T02:53:11.227Z,99562.34
2023-01-15T02:55:42.346Z,99546.13
2023-01-15T02:58:14.175Z,99554.03
2023-01-15T03:00:46.245Z,99561.47
2023-01-15T03:03:17.766Z,99552.41
2023-01-15T03:05:50.399Z,99556.47
2023-01-15T03:08:18.191Z,99547.63
2023-01-15T03:10:49.387Z,99546.28
2023-01-15T03:13:22.457Z,99553.56
2023-01-15T03:16:11.540Z,99549.56
2023-01-15T03:18:44.616Z,99537.06
2023-01-15T03:21:14.949Z,99539.56
2023-01-15T03:23:47.413Z,99535.41
2023-01-15T03:26:15.133Z,99537.63
2023-01-15T03:28:44.501Z,99518.53
2023-01-15T03:31:12.227Z,99523.78
2023-01-15T03:33:39.902Z,99523.34
2023-01-15T03:36:08.646Z,99525.28
2023-01-15T03:38:38.731Z,99520.41
2023-01-15T03:41:15.702Z,99522.34
2023-01-15T03:43:55.866Z,99520.69
2023-01-15T03:46:33.994Z,99528.44
2023-01-15T03:49:06.231Z,99542.25
2023-01-15T03:51:40.038Z,99534.66
2023-01-15T03:54:11.467Z,99536.44
2023-01-15T03:56:48.228Z,99533.00
2023-01-15T03:59:19.424Z,99529.69
2023-01-15T04:01:49.204Z,99541.69
2023-01-15T04:04:17.378Z,99526.47
2023-01-15T04:06:45.462Z,99535.91
2023-01-15T04:09:14.301Z,99536.97
2023-01-15T04:11:42.001Z,99532.81
2023-01-15T04:14:14.224Z,99529.50
2023-01-15T04:16:43.413Z,99540.44
2023-01-15T04:19:11.113Z,99529.22
2023-01-15T04:21:38.810Z,99518.28
2023-01-15T04:24:07.097Z,99521.19
2023-01-15T04:26:34.890Z,99527.25
2023-01-15T04:29:02.599Z,99518.56
2023-01-15T04:31:32.486Z,99524.78
2023-01-15T04:34:01.595Z,99521.69
2023-01-15T04:36:29.932Z,99513.00
2023-01-15T04:38:59.846Z,99530.03
2023-01-15T04:41:45.373Z,99536.25
2023-01-15T04:44:13.106Z,99531.38
2023-01-15T04:46:42.987Z,99530.25
2023-01-15T04:49:14.193Z,99519.53
2023-01-15T04:51:41.951Z,99528.38
2023-01-15T04:54:10.895Z,99523.13
2023-01-15T04:56:40.196Z,99523.13
2023-01-15T04:59:08.007Z,99522.38
2023-01-15T05:01:36.034Z,99524.19
2023-01-15T05:04:03.936Z,99515.63
2023-01-15T05:06:33.211Z,99509.53
2023-01-15T05:09:01.138Z,99509.53
2023-01-15T05:11:29.101Z,99511.72
2023-01-15T05:13:57.119Z,99522.22
2023-01-15T05:16:26.466Z,99527.34
2023-01-15T05:18:55.398Z,99515.06
2023-01-15T05:21:24.664Z,99529.84
2023-01-15T05:23:55.750Z,99533.31
2023-01-15T05:26:23.622Z,99521.00
2023-01-15T05:28:53.790Z,99516.44
2023-01-15T05:31:21.765Z,99525.28
2023-01-15T05:33:50.702Z,99525.28
2023-01-15T05:36:19.747Z,99528.59
2023-01-15T05:38:47.411Z,99523.63
2023-01-15T05:41:35.519Z,99523.88
2023-01-15T05:44:04.943Z,99527.59
2023-01-15T05:46:32.814Z,99521.78
2023-01-15T05:49:02.039Z,99525.81
2023-01-15T05:51:30.171Z,99518.91
2023-01-15T05:53:58.876Z,99518.44
2023-01-15T05:56:28.185Z,99522.75
2023-01-15T05:58:55.997Z,99515.00
2023-01-15T06:01:24.308Z,99510.84
2023-01-15T06:03:53.592Z,99510.84
2023-01-15T06:06:21.325Z,99511.66
2023-01-15T06:08:48.953Z,99507.53
2023-01-15T06:11:16.649Z,99503.63
2023-01-15T06:13:45.690Z,99513.78
2023-01-15T06:16:13.444Z,99506.19
2023-01-15T06:18:41.828Z,99515.41
2023-01-15T06:21:11.521Z,99502.41
2023-01-15T06:23:40.099Z,99506.00
2023-01-15T06:26:09.647Z,99514.84
2023-01-15T06:28:37.386Z,99514.03
2023-01-15T06:31:08.152Z,99507.81
2023-01-15T06:33:36.030Z,99512.22
2023-01-15T06:36:05.393Z,99510.44
2023-01-15T06:38:33.038Z,99513.44
2023-01-15T06:41:01.250Z,99519.25
2023-01-15T06:43:46.613Z,99525.59
2023-01-15T06:46:33.404Z,99530.81
2023-01-15T06:49:01.093Z,99530.25
2023-01-15T06:51:30.960Z,99527.78
2023-01-15T06:53:58.980Z,99529.16
2023-01-15T06:56:26.690Z,99523.66
2023-01-15T06:58:56.075Z,99530.59
2023-01-15T07:01:30.725Z,99531.28
2023-01-15T07:03:58.576Z,99534.03
2023-01-15T07:06:26.576Z,99534.16
2023-01-15T07:08:54.578Z,99535.25
2023-01-15T07:11:22.281Z,99529.44
2023-01-15T07:13:50.226Z,99530.81
2023-01-15T07:16:28.724Z,99535.56
2023-01-15T07:18:58.584Z,99537.00
2023-01-15T07:21:26.341Z,99531.34
2023-01-15T07:23:54.025Z,99516.56
2023-01-15T07:26:21.799Z,99516.94
2023-01-15T07:28:49.478Z,99564.63
2023-01-15T07:31:17.358Z,99537.09
2023-01-15T07:33:45.115Z,99531.09
2023-01-15T07:36:14.283Z,99547.47
2023-01-15T07:38:42.015Z,99562.56
2023-01-15T07:41:27.099Z,99538.19
2023-01-15T07:44:12.184Z,99532.97
2023-01-15T07:46:59.249Z,99527.16
2023-01-15T07:49:44.669Z,99530.69
2023-01-15T07:52:13.855Z,99524.53
2023-01-15T07:54:41.581Z,99524.63
2023-01-15T07:57:09.907Z,99518.31
2023-01-15T07:59:37.630Z,99524.63
2023-01-15T08:02:05.406Z,99529.38
2023-01-15T08:04:33.233Z,99537.09
2023-01-15T08:07:01.743Z,99533.44
2023-01-15T08:09:31.083Z,99535.09
2023-01-15T08:12:18.102Z,99520.31
2023-01-15T08:15:03.603Z,99531.03
2023-01-15T08:17:31.658Z,99550.34
2023-01-15T08:19:59.429Z,99534.88
2023-01-15T08:22:27.169Z,99541.78
2023-01-15T08:24:56.285Z,99535.56
2023-01-15T08:27:24.002Z,99533.91
2023-01-15T08:29:51.730Z,99539.88
2023-01-15T08:32:19.599Z,99528.69
2023-01-15T08:34:47.370Z,99531.28
2023-01-15T08:37:15.036Z,99535.72
2023-01-15T08:39:42.820Z,99519.28
2023-01-15T08:42:11.877Z,99525.91
2023-01-15T08:44:39.627Z,99526.75
2023-01-15T08:47:07.342Z,99533.78
2023-01-15T08:49:35.083Z,99530.81
2023-01-15T08:52:02.804Z,99531.63
2023-01-15T08:54:30.682Z,99526.53
2023-01-15T08:56:58.570Z,99531.50
2023-01-15T08:59:27.688Z,99533.28
2023-01-15T09:01:55.818Z,99525.28
2023-01-15T09:04:23.780Z,99533.75
2023-01-15T09:06:51.581Z,99529.34
2023-01-15T09:09:19.885Z,99532.53
2023-01-15T09:11:47.808Z,99538.38
2023-01-15T09:14:55.517Z,99529.28
2023-01-15T09:17:05.654Z,99534.03
2023-01-15T09:19:33.377Z,99533.06
2023-01-15T09:22:01.149Z,99526.84
2023-01-15T09:24:28.880Z,99529.47
2023-01-15T09:26:56.699Z,99522.44
2023-01-15T09:29:24.510Z,99528.28
2023-01-15T09:31:52.204Z,99525.38
2023-01-15T09:34:21.261Z,99541.59
2023-01-15T09:36:50.809Z,99533.78
2023-01-15T09:39:18.521Z,99531.16
2023-01-15T09:42:08.233Z,99532.81
2023-01-15T09:44:54.746Z,99535.31
2023-01-15T09:47:27.701Z,99547.22
2023-01-15T09:50:11.000Z,99536.72
2023-01-15T09:52:54.394Z,99541.69
2023-01-15T09:55:23.801Z,99532.03
2023-01-15T09:57:53.820Z,99541.47
2023-01-15T10:00:24.125Z,99551.97
2023-01-15T10:02:54.658Z,99538.13
2023-01-15T10:05:27.922Z,99552.38
2023-01-15T10:07:59.626Z,99560.25
2023-01-15T10:10:33.953Z,99549.75
2023-01-15T10:13:07.591Z,99546.44
2023-01-15T10:15:38.231Z,99563.72
2023-01-15T10:18:08.125Z,99564.59
2023-01-15T10:20:50.247Z,99546.22
2023-01-15T10:23:30.277Z,99565.41
2023-01-15T10:26:04.618Z,99558.38
2023-01-15T10:28:33.747Z,99557.81
2023-01-15T10:31:06.059Z,99550.53
2023-01-15T10:33:47.333Z,99555.94
2023-01-15T10:36:19.590Z,99542.34
2023-01-15T10:38:54.064Z,99529.09
2023-01-15T10:41:31.208Z,99544.59
2023-01-15T10:44:01.747Z,99537.41
2023-01-15T10:46:33.483Z,99536.44
2023-01-15T10:49:03.990Z,99558.72
2023-01-15T10:51:37.219Z,99543.28
2023-01-15T10:54:08.837Z,99556.84
2023-01-15T10:56:41.603Z,99560.19
2023-01-15T10:59:14.395Z,99553.66
2023-01-15T11:01:42.268Z,99552.69
2023-01-15T11:04:12.412Z,99554.63
2023-01-15T11:06:41.588Z,99532.78
2023-01-15T11:09:20.906Z,99530.81
2023-01-15T11:12:07.918Z,99532.91
2023-01-15T11:14:54.886Z,99523.22
2023-01-15T11:17:40.583Z,99529.88
2023-01-15T11:20:16.290Z,99502.22
2023-01-15T11:22:45.628Z,99519.25
2023-01-15T11:25:13.534Z,99519.25
2023-01-15T11:27:41.527Z,99531.41
2023-01-15T11:30:27.417Z,99528.91
2023-01-15T11:32:57.732Z,99541.09
2023-01-15T11:35:25.979Z,99549.41
2023-01-15T11:38:07.646Z,99530.88
2023-01-15T11:40:35.733Z,99526.09
2023-01-15T11:43:21.093Z,99534.78
2023-01-15T11:46:07.402Z,99527.22
2023-01-15T11:48:54.114Z,99509.66
2023-01-15T11:51:21.805Z,99526.94
2023-01-15T11:53:52.830Z,99513.81
2023-01-15T11:56:23.302Z,99515.31
2023-01-15T11:58:52.884Z,99517.13
2023-01-15T12:01:27.133Z,99507.25
2023-01-15T12:03:55.169Z,99516.53
2023-01-15T12:06:23.411Z,99514.75
2023-01-15T12:08:53.831Z,99520.81
2023-01-15T12:11:33.257Z,99527.06
2023-01-15T12:14:22.273Z,99509.88
2023-01-15T12:16:53.664Z,99540.44
2023-01-15T12:19:26.764Z,99507.25
2023-01-15T12:22:15.028Z,99525.81
2023-01-15T12:24:52.388Z,99504.22
2023-01-15T12:27:29.824Z,99521.50
2023-01-15T12:30:00.560Z,99513.78
2023-01-15T12:32:32.351Z,99508.91
2023-01-15T12:35:04.759Z,99522.75
2023-01-15T12:37:36.001Z,99517.22
2023-01-15T12:40:16.569Z,99523.50
2023-01-15T12:43:03.384Z,99515.75
2023-01-15T12:45:33.985Z,99533.97
2023-01-15T12:48:06.896Z,99545.00
2023-01-15T12:50:39.611Z,99527.13
2023-01-15T12:53:13.069Z,99519.22
2023-01-15T12:55:48.906Z,99525.75
2023-01-15T12:58:32.771Z,99505.69
2023-01-15T13:01:05.985Z,99511.88
2023-01-15T13:03:41.577Z,99512.59
2023-01-15T13:06:09.845Z,99520.03
2023-01-15T13:08:41.423Z,99499.03
2023-01-15T13:11:12.756Z,99495.72
2023-01-15T13:13:42.332Z,99497.50
2023-01-15T13:16:15.262Z,99504.56
2023-01-15T13:18:51.571Z,99506.78
2023-01-15T13:21:21.589Z,99520.03
2023-01-15T13:24:03.460Z,99521.97
2023-01-15T13:26:53.499Z,99516.97
2023-01-15T13:29:26.173Z,99525.38
2023-01-15T13:32:03.173Z,99529.66
2023-01-15T13:34:37.716Z,99536.72
2023-01-15T13:37:10.072Z,99537.78
2023-01-15T13:39:40.606Z,99552.34
2023-01-15T13:42:33.319Z,99556.75
2023-01-15T13:45:03.740Z,99555.94
2023-01-15T13:47:34.761Z,99557.53
2023-01-15T13:50:05.122Z,99569.38
2023-01-15T13:52:34.633Z,99571.72
2023-01-15T13:55:10.593Z,99571.03
2023-01-15T13:57:42.065Z,99568.41
2023-01-15T14:00:28.897Z,99559.13
2023-01-15T14:02:57.702Z,99561.31
2023-01-15T14:05:31.951Z,99574.16
2023-01-15T14:08:01.412Z,99570.84
2023-01-15T14:10:38.587Z,99563.44
2023-01-15T14:13:20.917Z,99560.06
2023-01-15T14:15:54.257Z,99567.13
2023-01-15T14:18:52.645Z,99575.13
2023-01-15T14:21:32.622Z,99589.22
2023-01-15T14:24:33.673Z,99575.97
2023-01-15T14:27:06.866Z,99587.28
2023-01-15T14:29:58.147Z,99581.59
2023-01-15T14:32:32.966Z,99596.88
2023-01-15T14:35:02.194Z,99588.34
2023-01-15T14:37:32.968Z,99592.41
2023-01-15T14:40:02.215Z,99592.66
2023-01-15T14:42:50.068Z,99584.34
2023-01-15T14:45:25.657Z,99596.03
2023-01-15T14:47:54.540Z,99609.63
2023-01-15T14:50:31.237Z,99596.78
2023-01-15T14:53:03.413Z,99599.41
2023-01-15T14:55:31.411Z,99594.16
2023-01-15T14:58:02.206Z,99604.66
2023-01-15T15:00:36.433Z,99609.63
2023-01-15T15:03:06.118Z,99607.47
2023-01-15T15:05:35.532Z,99610.56
2023-01-15T15:08:04.459Z,99603.63
2023-01-15T15:10:34.477Z,99593.88
2023-01-15T15:13:06.218Z,99610.56
2023-01-15T15:15:45.241Z,99611.13
2023-01-15T15:18:19.956Z,99611.28
2023-01-15T15:20:52.181Z,99603.13
2023-01-15T15:23:25.489Z,99613.91
2023-01-15T15:25:59.953Z,99617.34
2023-01-15T15:28:27.965Z,99621.75
2023-01-15T15:31:01.309Z,99618.19
2023-01-15T15:33:36.203Z,99633.66
2023-01-15T15:36:04.356Z,99618.06
2023-01-15T15:38:32.004Z,99620.53
2023-01-15T15:41:01.929Z,99611.75
2023-01-15T15:43:50.907Z,99620.53
2023-01-15T15:46:48.271Z,99626.63
2023-01-15T15:49:16.347Z,99634.13
2023-01-15T15:51:48.623Z,99635.66
2023-01-15T15:54:18.782Z,99630.53
2023-01-15T15:56:50.269Z,99653.19
2023-01-15T15:59:25.158Z,99644.38
2023-01-15T16:01:54.661Z,99654.03
2023-01-15T16:04:22.529Z,99655.94
2023-01-15T16:06:50.234Z,99649.88
2023-01-15T16:09:22.033Z,99662.03
2023-01-15T16:11:50.973Z,99661.47
2023-01-15T16:14:19.594Z,99655.13
2023-01-15T16:16:48.069Z,99679.44
2023-01-15T16:19:19.716Z,99681.09
2023-01-15T16:21:48.130Z,99684.69
2023-01-15T16:24:27.504Z,99689.94
2023-01-15T16:26:59.107Z,99693.28
2023-01-15T16:29:28.573Z,99682.66
2023-01-15T16:31:58.836Z,99691.38
2023-01-15T16:34:31.877Z,99707.13
2023-01-15T16:37:00.870Z,99682.19
2023-01-15T16:39:31.807Z,99684.94
2023-01-15T16:42:02.353Z,99695.69
2023-01-15T16:44:43.939Z,99699.84
2023-01-15T16:47:22.963Z,99701.03
2023-01-15T16:49:52.174Z,99683.66
2023-01-15T16:52:48.949Z,99686.53
2023-01-15T16:55:39.401Z,99700.00
2023-01-15T16:58:22.177Z,99700.00
2023-01-15T17:00:51.273Z,99699.28
2023-01-15T17:03:20.464Z,99715.28
2023-01-15T17:05:51.821Z,99730.91
2023-01-15T17:08:21.224Z,99726.50
2023-01-15T17:10:56.855Z,99723.16
2023-01-15T17:13:31.848Z,99725.78
2023-01-15T17:16:08.378Z,99740.06
2023-01-15T17:18:36.379Z,99741.25
2023-01-15T17:21:05.783Z,99739.34
2023-01-15T17:23:36.722Z,99751.50
2023-01-15T17:26:07.000Z,99754.00
2023-01-15T17:28:35.267Z,99750.41
2023-01-15T17:31:03.703Z,99744.25
2023-01-15T17:33:31.527Z,99752.59
2023-01-15T17:36:01.191Z,99754.38
2023-01-15T17:38:30.464Z,99765.22
2023-01-15T17:41:00.667Z,99760.38
2023-01-15T17:43:28.531Z,99762.50
2023-01-15T17:45:56.246Z,99771.34
2023-01-15T17:48:23.922Z,99768.38
2023-01-15T17:50:51.976Z,99773.47
2023-01-15T17:53:19.774Z,99772.53
2023-01-15T17:56:06.178Z,99767.28
2023-01-15T17:58:51.573Z,99774.19
2023-01-15T18:01:39.099Z,99767.50
2023-01-15T18:04:27.260Z,99776.31
2023-01-15T18:06:55.079Z,99765.84
2023-01-15T18:09:23.390Z,99770.59
2023-01-15T18:11:52.613Z,99768.69
2023-01-15T18:14:20.337Z,99772.03
2023-01-15T18:16:48.036Z,99773.72
2023-01-15T18:19:15.748Z,99777.28
2023-01-15T18:21:43.463Z,99784.34
2023-01-15T18:24:11.955Z,99784.09
2023-01-15T18:26:40.784Z,99782.78
2023-01-15T18:29:10.993Z,99785.88
2023-01-15T18:31:39.493Z,99777.31
2023-01-15T18:34:07.529Z,99781.81
2023-01-15T18:36:46.434Z,99775.84
2023-01-15T18:39:14.291Z,99777.31
2023-01-15T18:41:59.876Z,99777.19
2023-01-15T18:44:46.310Z,99771.59
2023-01-15T18:47:15.576Z,99778.50
2023-01-15T18:49:44.421Z,99764.06
2023-01-15T18:52:30.715Z,99778.00
2023-01-15T18:54:58.423Z,99770.41
2023-01-15T18:57:26.323Z,99776.34
2023-01-15T18:59:55.422Z,99770.28
2023-01-15T19:02:23.170Z,99772.63
2023-01-15T19:04:50.933Z,99773.94
2023-01-15T19:07:18.839Z,99771.31
2023-01-15T19:09:46.573Z,99765.38
2023-01-15T19:12:17.186Z,99776.09
2023-01-15T19:15:02.508Z,99767.53
2023-01-15T19:17:49.212Z,99758.94
2023-01-15T19:20:18.447Z,99768.97
2023-01-15T19:23:05.891Z,99766.44
2023-01-15T19:25:37.485Z,99762.28
2023-01-15T19:28:06.024Z,99761.78
2023-01-15T19:30:34.193Z,99762.28
2023-01-15T19:33:03.325Z,99770.84
2023-01-15T19:35:31.332Z,99769.88
2023-01-15T19:37:59.208Z,99773.81
2023-01-15T19:40:27.335Z,99768.44
2023-01-15T19:43:13.425Z,99762.50
2023-01-15T19:45:59.826Z,99751.16
2023-01-15T19:48:46.737Z,99760.56
2023-01-15T19:51:14.769Z,99756.41
2023-01-15T19:53:42.416Z,99754.63
2023-01-15T19:56:10.338Z,99742.22
2023-01-15T19:58:38.128Z,99751.16
2023-01-15T20:01:07.250Z,99759.28
2023-01-15T20:03:36.499Z,99748.94
2023-01-15T20:06:08.659Z,99747.22
2023-01-15T20:08:36.355Z,99748.56
2023-01-15T20:11:09.433Z,99752.13
2023-01-15T20:13:53.208Z,99747.22
2023-01-15T20:16:25.403Z,99749.84
2023-01-15T20:18:55.646Z,99749.00
2023-01-15T20:21:23.531Z,99755.09
2023-01-15T20:23:51.255Z,99756.88
2023-01-15T20:26:19.186Z,99745.78
2023-01-15T20:28:47.749Z,99756.25
2023-01-15T20:31:16.690Z,99749.13
2023-01-15T20:33:44.445Z,99743.78
2023-01-15T20:36:13.716Z,99750.09
2023-01-15T20:38:41.449Z,99737.81
2023-01-15T20:41:27.634Z,99739.38
2023-01-15T20:44:18.209Z,99734.97
2023-01-15T20:46:45.863Z,99738.66
2023-01-15T20:49:25.133Z,99743.66
2023-01-15T20:51:54.789Z,99737.47
2023-01-15T20:54:23.242Z,99739.38
2023-01-15T20:56:50.961Z,99723.28
2023-01-15T20:59:18.718Z,99731.00
2023-01-15T21:01:46.640Z,99722.19
2023-01-15T21:04:14.530Z,99720.53
2023-01-15T21:06:42.384Z,99721.38
2023-01-15T21:09:11.551Z,99712.66
2023-01-15T21:11:39.365Z,99722.44
2023-01-15T21:14:07.104Z,99712.47
2023-01-15T21:16:34.862Z,99711.38
2023-01-15T21:19:04.729Z,99712.09
2023-01-15T21:21:32.530Z,99700.31
2023-01-15T21:24:01.378Z,99692.31
2023-01-15T21:26:31.101Z,99695.56
2023-01-15T21:28:58.918Z,99693.97
2023-01-15T21:31:26.715Z,99689.81
2023-01-15T21:33:55.118Z,99694.94
2023-01-15T21:36:26.291Z,99688.16
2023-01-15T21:38:55.379Z,99671.72
2023-01-15T21:41:44.860Z,99660.63
2023-01-15T21:44:34.772Z,99664.78
2023-01-15T21:47:03.886Z,99650.03
2023-01-15T21:49:33.363Z,99648.72
2023-01-15T21:52:01.506Z,99654.66
2023-01-15T21:54:29.409Z,99644.19
2023-01-15T21:56:57.220Z,99639.19
2023-01-15T21:59:26.933Z,99646.94
2023-01-15T22:01:55.114Z,99639.78
2023-01-15T22:04:24.480Z,99643.81
2023-01-15T22:06:52.598Z,99639.31
2023-01-15T22:09:20.399Z,99639.31
2023-01-15T22:11:48.490Z,99635.47
2023-01-15T22:14:17.707Z,99632.63
2023-01-15T22:16:47.493Z,99630.72
2023-01-15T22:19:19.592Z,99630.84
2023-01-15T22:21:47.477Z,99619.75
2023-01-15T22:24:15.132Z,99612.00
2023-01-15T22:26:43.715Z,99599.25
2023-01-15T22:29:11.855Z,99595.72
2023-01-15T22:31:41.030Z,99589.50
2023-01-15T22:34:10.065Z,99586.88
2023-01-15T22:36:37.989Z,99573.31
2023-01-15T22:39:06.020Z,99568.31
2023-01-15T22:41:51.825Z,99568.31
2023-01-15T22:44:19.776Z,99564.75
2023-01-15T22:46:50.371Z,99563.66
2023-01-15T22:49:19.854Z,99555.53
2023-01-15T22:51:47.704Z,99553.50
2023-01-15T22:54:15.701Z,99542.19
2023-01-15T22:56:43.724Z,99535.88
2023-01-15T22:59:12.893Z,99539.44
2023-01-15T23:01:41.260Z,99536.81
2023-01-15T23:04:11.920Z,99524.53
2023-01-15T23:06:41.313Z,99523.44
2023-01-15T23:09:10.386Z,99522.75
2023-01-15T23:11:38.986Z,99522.88
2023-01-15T23:14:07.082Z,99512.41
2023-01-15T23:16:34.889Z,99511.44
2023-01-15T23:19:02.737Z,99508.69
2023-01-15T23:21:30.817Z,99497.13
2023-01-15T23:24:01.662Z,99496.19
2023-01-15T23:26:31.422Z,99490.94
2023-01-15T23:28:59.698Z,99495.34
2023-01-15T23:31:27.835Z,99484.03
2023-01-15T23:33:55.922Z,99476.25
2023-01-15T23:36:24.011Z,99477.22
2023-01-15T23:38:51.767Z,99481.63
2023-01-15T23:41:43.846Z,99474.75
2023-01-15T23:44:33.731Z,99471.97
2023-01-15T23:47:01.454Z,99466.50
2023-01-15T23:49:29.276Z,99463.75
2023-01-15T23:51:57.021Z,99462.53
2023-01-15T23:54:27.473Z,99452.91
2023-01-15T23:56:56.908Z,99441.00
2023-01-15T23:59:25.164Z,99440.72
